sensor_id;sensor_type;location;lat;lon;timestamp;temperature;humidity
3001;DHT22;1510;51.072;6.678;2022-12-26T00:01:38;10.60;99.90
3001;DHT22;1510;51.072;6.678;2022-12-26T00:04:05;10.50;99.90
3001;DHT22;1510;51.072;6.678;2022-12-26T00:06:33;10.50;99.90
3001;DHT22;1510;51.072;6.678;2022-12-26T00:09:01;10.50;99.90
3001;DHT22;1510;51.072;6.678;2022-12-26T00:11:29;10.50;99.90
3001;DHT22;1510;51.072;6.678;2022-12-26T00:13:58;10.60;99.90
3001;DHT22;1510;51.072;6.678;2022-12-26T00:16:25;10.50;99.90
3001;DHT22;1510;51.072;6.678;2022-12-26T00:18:53;10.50;99.90
3001;DHT22;1510;51.072;6.678;2022-12-26T00:21:20;10.50;99.90
3001;DHT22;1510;51.072;6.678;2022-12-26T00:23:49;10.60;99.90
3001;DHT22;1510;51.072;6.678;2022-12-26T00:26:18;10.60;99.90
3001;DHT22;1510;51.072;6.678;2022-12-26T00:28:45;10.70;99.90
3001;DHT22;1510;51.072;6.678;2022-12-26T00:31:14;10.70;99.90
3001;DHT22;1510;51.072;6.678;2022-12-26T00:33:41;10.70;99.90
3001;DHT22;1510;51.072;6.678;2022-12-26T00:36:10;10.60;99.90
3001;DHT22;1510;51.072;6.678;2022-12-26T00:38:39;10.70;99.90
3001;DHT22;1510;51.072;6.678;2022-12-26T00:41:08;10.80;99.90
3001;DHT22;1510;51.072;6.678;2022-12-26T00:43:35;10.90;99.90
3001;DHT22;1510;51.072;6.678;2022-12-26T00:46:03;10.90;99.90
3001;DHT22;1510;51.072;6.678;2022-12-26T00:48:30;10.70;99.90
3001;DHT22;1510;51.072;6.678;2022-12-26T00:50:57;10.80;99.90
3001;DHT22;1510;51.072;6.678;2022-12-26T00:53:25;10.90;99.90
3001;DHT22;1510;51.072;6.678;2022-12-26T00:55:52;11.00;99.90
3001;DHT22;1510;51.072;6.678;2022-12-26T00:58:21;11.00;99.90
3001;DHT22;1510;51.072;6.678;2022-12-26T01:00:48;11.00;99.90
3001;DHT22;1510;51.072;6.678;2022-12-26T01:03:15;11.00;99.90
3001;DHT22;1510;51.072;6.678;2022-12-26T01:05:44;11.10;99.90
3001;DHT22;1510;51.072;6.678;2022-12-26T01:08:11;11.00;99.90
3001;DHT22;1510;51.072;6.678;2022-12-26T01:10:40;11.10;99.90
3001;DHT22;1510;51.072;6.678;2022-12-26T01:13:07;11.10;99.90
3001;DHT22;1510;51.072;6.678;2022-12-26T01:15:35;11.20;99.90
3001;DHT22;1510;51.072;6.678;2022-12-26T01:18:03;11.20;99.90
3001;DHT22;1510;51.072;6.678;2022-12-26T01:20:29;11.10;99.90
3001;DHT22;1510;51.072;6.678;2022-12-26T01:22:56;11.20;99.90
3001;DHT22;1510;51.072;6.678;2022-12-26T01:25:23;11.20;99.90
3001;DHT22;1510;51.072;6.678;2022-12-26T01:27:50;11.20;99.90
3001;DHT22;1510;51.072;6.678;2022-12-26T01:30:17;11.10;99.90
3001;DHT22;1510;51.072;6.678;2022-12-26T01:32:45;11.20;99.90
3001;DHT22;1510;51.072;6.678;2022-12-26T01:35:12;11.10;99.90
3001;DHT22;1510;51.072;6.678;2022-12-26T01:37:38;11.20;99.90
3001;DHT22;1510;51.072;6.678;2022-12-26T01:40:06;11.10;99.90
3001;DHT22;1510;51.072;6.678;2022-12-26T01:42:37;11.20;99.90
3001;DHT22;1510;51.072;6.678;2022-12-26T01:45:08;11.20;99.90
3001;DHT22;1510;51.072;6.678;2022-12-26T01:47:47;11.30;99.90
3001;DHT22;1510;51.072;6.678;2022-12-26T01:50:28;11.30;99.90
3001;DHT22;1510;51.072;6.678;2022-12-26T01:53:00;11.40;99.90
3001;DHT22;1510;51.072;6.678;2022-12-26T01:55:28;11.40;99.90
3001;DHT22;1510;51.072;6.678;2022-12-26T01:57:59;11.40;99.90
3001;DHT22;1510;51.072;6.678;2022-12-26T02:00:28;11.20;99.90
3001;DHT22;1510;51.072;6.678;2022-12-26T02:02:56;11.10;99.90
3001;DHT22;1510;51.072;6.678;2022-12-26T02:05:49;11.10;99.90
3001;DHT22;1510;51.072;6.678;2022-12-26T02:08:19;11.00;99.90
3001;DHT22;1510;51.072;6.678;2022-12-26T02:10:49;11.00;99.90
3001;DHT22;1510;51.072;6.678;2022-12-26T02:13:17;11.10;99.90
3001;DHT22;1510;51.072;6.678;2022-12-26T02:15:45;11.00;99.90
3001;DHT22;1510;51.072;6.678;2022-12-26T02:18:14;11.00;99.90
3001;DHT22;1510;51.072;6.678;2022-12-26T02:20:47;11.00;99.90
3001;DHT22;1510;51.072;6.678;2022-12-26T02:27:01;11.00;99.90
3001;DHT22;1510;51.072;6.678;2022-12-26T02:30:22;11.10;99.90
3001;DHT22;1510;51.072;6.678;2022-12-26T02:33:18;10.90;99.90
3001;DHT22;1510;51.072;6.678;2022-12-26T02:35:59;10.80;99.90
3001;DHT22;1510;51.072;6.678;2022-12-26T02:38:36;10.70;99.90
3001;DHT22;1510;51.072;6.678;2022-12-26T02:41:16;10.70;99.90
3001;DHT22;1510;51.072;6.678;2022-12-26T02:43:50;10.70;99.90
3001;DHT22;1510;51.072;6.678;2022-12-26T02:46:24;10.70;99.90
3001;DHT22;1510;51.072;6.678;2022-12-26T02:49:17;10.70;99.90
3001;DHT22;1510;51.072;6.678;2022-12-26T02:51:55;10.70;99.90
3001;DHT22;1510;51.072;6.678;2022-12-26T02:55:00;10.60;99.90
3001;DHT22;1510;51.072;6.678;2022-12-26T02:57:48;10.60;99.90
3001;DHT22;1510;51.072;6.678;2022-12-26T03:00:37;10.70;99.90
3001;DHT22;1510;51.072;6.678;2022-12-26T03:03:32;10.70;99.90
3001;DHT22;1510;51.072;6.678;2022-12-26T03:06:21;10.70;99.90
3001;DHT22;1510;51.072;6.678;2022-12-26T03:09:10;10.70;99.90
3001;DHT22;1510;51.072;6.678;2022-12-26T03:12:26;10.70;99.90
3001;DHT22;1510;51.072;6.678;2022-12-26T03:15:14;10.70;99.90
3001;DHT22;1510;51.072;6.678;2022-12-26T03:17:45;10.60;99.90
3001;DHT22;1510;51.072;6.678;2022-12-26T03:20:16;10.60;99.90
3001;DHT22;1510;51.072;6.678;2022-12-26T03:22:47;10.60;99.90
3001;DHT22;1510;51.072;6.678;2022-12-26T03:25:19;10.60;99.90
3001;DHT22;1510;51.072;6.678;2022-12-26T03:28:06;10.60;99.90
3001;DHT22;1510;51.072;6.678;2022-12-26T03:30:33;10.60;99.90
3001;DHT22;1510;51.072;6.678;2022-12-26T03:33:15;10.60;99.90
3001;DHT22;1510;51.072;6.678;2022-12-26T03:36:10;10.60;99.90
3001;DHT22;1510;51.072;6.678;2022-12-26T03:38:45;10.50;99.90
3001;DHT22;1510;51.072;6.678;2022-12-26T03:41:25;10.50;99.90
3001;DHT22;1510;51.072;6.678;2022-12-26T03:44:20;10.60;99.90
3001;DHT22;1510;51.072;6.678;2022-12-26T03:47:17;10.50;99.90
3001;DHT22;1510;51.072;6.678;2022-12-26T03:50:09;10.50;99.90
3001;DHT22;1510;51.072;6.678;2022-12-26T03:53:04;10.50;99.90
3001;DHT22;1510;51.072;6.678;2022-12-26T03:55:55;10.50;99.90
3001;DHT22;1510;51.072;6.678;2022-12-26T03:58:47;10.40;99.90
3001;DHT22;1510;51.072;6.678;2022-12-26T04:01:34;10.40;99.90
3001;DHT22;1510;51.072;6.678;2022-12-26T04:04:21;10.30;99.90
3001;DHT22;1510;51.072;6.678;2022-12-26T04:07:09;10.30;99.90
3001;DHT22;1510;51.072;6.678;2022-12-26T04:09:59;10.20;99.90
3001;DHT22;1510;51.072;6.678;2022-12-26T04:12:44;10.40;99.90
3001;DHT22;1510;51.072;6.678;2022-12-26T04:15:36;10.20;99.90
3001;DHT22;1510;51.072;6.678;2022-12-26T04:18:21;10.30;99.90
3001;DHT22;1510;51.072;6.678;2022-12-26T04:21:13;10.30;99.90
3001;DHT22;1510;51.072;6.678;2022-12-26T04:23:59;10.30;99.90
3001;DHT22;1510;51.072;6.678;2022-12-26T04:26:51;10.30;99.90
3001;DHT22;1510;51.072;6.678;2022-12-26T04:29:37;10.30;99.90
3001;DHT22;1510;51.072;6.678;2022-12-26T04:32:27;10.40;99.90
3001;DHT22;1510;51.072;6.678;2022-12-26T04:35:18;10.30;99.90
3001;DHT22;1510;51.072;6.678;2022-12-26T04:38:04;10.30;99.90
3001;DHT22;1510;51.072;6.678;2022-12-26T04:40:54;10.20;99.90
3001;DHT22;1510;51.072;6.678;2022-12-26T04:43:42;10.20;99.90
3001;DHT22;1510;51.072;6.678;2022-12-26T04:46:27;10.30;99.90
3001;DHT22;1510;51.072;6.678;2022-12-26T04:48:56;10.30;99.90
3001;DHT22;1510;51.072;6.678;2022-12-26T04:51:41;10.40;99.90
3001;DHT22;1510;51.072;6.678;2022-12-26T04:54:07;10.30;99.90
3001;DHT22;1510;51.072;6.678;2022-12-26T04:56:34;10.40;99.90
3001;DHT22;1510;51.072;6.678;2022-12-26T04:59:02;10.40;99.90
3001;DHT22;1510;51.072;6.678;2022-12-26T05:01:29;10.40;99.90
3001;DHT22;1510;51.072;6.678;2022-12-26T05:04:15;10.30;99.90
3001;DHT22;1510;51.072;6.678;2022-12-26T05:06:59;10.30;99.90
3001;DHT22;1510;51.072;6.678;2022-12-26T05:09:46;10.30;99.90
3001;DHT22;1510;51.072;6.678;2022-12-26T05:12:14;10.30;99.90
3001;DHT22;1510;51.072;6.678;2022-12-26T05:14:42;10.20;99.90
3001;DHT22;1510;51.072;6.678;2022-12-26T05:17:11;10.20;99.90
3001;DHT22;1510;51.072;6.678;2022-12-26T05:19:55;10.20;99.90
3001;DHT22;1510;51.072;6.678;2022-12-26T05:22:41;10.20;99.90
3001;DHT22;1510;51.072;6.678;2022-12-26T05:25:29;10.20;99.90
3001;DHT22;1510;51.072;6.678;2022-12-26T05:28:16;10.20;99.90
3001;DHT22;1510;51.072;6.678;2022-12-26T05:31:02;10.20;99.90
3001;DHT22;1510;51.072;6.678;2022-12-26T05:33:29;10.30;99.90
3001;DHT22;1510;51.072;6.678;2022-12-26T05:36:14;10.30;99.90
3001;DHT22;1510;51.072;6.678;2022-12-26T05:38:41;10.30;99.90
3001;DHT22;1510;51.072;6.678;2022-12-26T05:41:08;10.30;99.90
3001;DHT22;1510;51.072;6.678;2022-12-26T05:43:35;10.30;99.90
3001;DHT22;1510;51.072;6.678;2022-12-26T05:46:03;10.40;99.90
3001;DHT22;1510;51.072;6.678;2022-12-26T05:48:30;10.30;99.90
3001;DHT22;1510;51.072;6.678;2022-12-26T05:50:57;10.30;99.90
3001;DHT22;1510;51.072;6.678;2022-12-26T05:53:24;10.20;99.90
3001;DHT22;1510;51.072;6.678;2022-12-26T05:55:51;10.20;99.90
3001;DHT22;1510;51.072;6.678;2022-12-26T05:58:18;10.10;99.90
3001;DHT22;1510;51.072;6.678;2022-12-26T06:00:45;10.10;99.90
3001;DHT22;1510;51.072;6.678;2022-12-26T06:03:13;10.10;99.90
3001;DHT22;1510;51.072;6.678;2022-12-26T06:05:39;10.00;99.90
3001;DHT22;1510;51.072;6.678;2022-12-26T06:08:06;10.00;99.90
3001;DHT22;1510;51.072;6.678;2022-12-26T06:10:33;10.00;99.90
3001;DHT22;1510;51.072;6.678;2022-12-26T06:13:00;10.00;99.90
3001;DHT22;1510;51.072;6.678;2022-12-26T06:15:27;9.90;99.90
3001;DHT22;1510;51.072;6.678;2022-12-26T06:17:54;9.90;99.90
3001;DHT22;1510;51.072;6.678;2022-12-26T06:20:22;9.90;99.90
3001;DHT22;1510;51.072;6.678;2022-12-26T06:22:49;9.90;99.90
3001;DHT22;1510;51.072;6.678;2022-12-26T06:25:16;9.90;99.90
3001;DHT22;1510;51.072;6.678;2022-12-26T06:27:42;10.00;99.90
3001;DHT22;1510;51.072;6.678;2022-12-26T06:30:10;9.90;99.90
3001;DHT22;1510;51.072;6.678;2022-12-26T06:32:37;9.80;99.90
3001;DHT22;1510;51.072;6.678;2022-12-26T06:35:04;9.80;99.90
3001;DHT22;1510;51.072;6.678;2022-12-26T06:37:33;9.80;99.90
3001;DHT22;1510;51.072;6.678;2022-12-26T06:39:59;9.80;99.90
3001;DHT22;1510;51.072;6.678;2022-12-26T06:42:27;9.90;99.90
3001;DHT22;1510;51.072;6.678;2022-12-26T06:44:54;9.90;99.90
3001;DHT22;1510;51.072;6.678;2022-12-26T06:47:20;9.80;99.90
3001;DHT22;1510;51.072;6.678;2022-12-26T06:49:47;9.90;99.90
3001;DHT22;1510;51.072;6.678;2022-12-26T06:52:14;9.90;99.90
3001;DHT22;1510;51.072;6.678;2022-12-26T06:54:42;9.90;99.90
3001;DHT22;1510;51.072;6.678;2022-12-26T06:57:09;9.90;99.90
3001;DHT22;1510;51.072;6.678;2022-12-26T06:59:35;9.90;99.90
3001;DHT22;1510;51.072;6.678;2022-12-26T07:02:02;10.00;99.90
3001;DHT22;1510;51.072;6.678;2022-12-26T07:04:29;10.00;99.90
3001;DHT22;1510;51.072;6.678;2022-12-26T07:06:56;10.00;99.90
3001;DHT22;1510;51.072;6.678;2022-12-26T07:09:22;10.00;99.90
3001;DHT22;1510;51.072;6.678;2022-12-26T07:11:50;10.00;99.90
3001;DHT22;1510;51.072;6.678;2022-12-26T07:14:17;10.10;99.90
3001;DHT22;1510;51.072;6.678;2022-12-26T07:16:44;10.10;99.90
3001;DHT22;1510;51.072;6.678;2022-12-26T07:19:13;10.10;99.90
3001;DHT22;1510;51.072;6.678;2022-12-26T07:21:40;10.10;99.90
3001;DHT22;1510;51.072;6.678;2022-12-26T07:24:13;10.00;99.90
3001;DHT22;1510;51.072;6.678;2022-12-26T07:26:40;9.90;99.90
3001;DHT22;1510;51.072;6.678;2022-12-26T07:29:09;9.80;99.90
3001;DHT22;1510;51.072;6.678;2022-12-26T07:31:35;9.80;99.90
3001;DHT22;1510;51.072;6.678;2022-12-26T07:34:02;9.70;99.90
3001;DHT22;1510;51.072;6.678;2022-12-26T07:36:29;9.70;99.90
3001;DHT22;1510;51.072;6.678;2022-12-26T07:38:56;9.70;99.90
3001;DHT22;1510;51.072;6.678;2022-12-26T07:41:23;9.60;99.90
3001;DHT22;1510;51.072;6.678;2022-12-26T07:44:09;9.70;99.90
3001;DHT22;1510;51.072;6.678;2022-12-26T07:46:36;9.50;99.90
3001;DHT22;1510;51.072;6.678;2022-12-26T07:49:03;9.50;99.90
3001;DHT22;1510;51.072;6.678;2022-12-26T07:51:30;9.50;99.90
3001;DHT22;1510;51.072;6.678;2022-12-26T07:53:56;9.50;99.90
3001;DHT22;1510;51.072;6.678;2022-12-26T07:56:23;9.60;99.90
3001;DHT22;1510;51.072;6.678;2022-12-26T07:58:50;9.60;99.90
3001;DHT22;1510;51.072;6.678;2022-12-26T08:01:18;9.60;99.90
3001;DHT22;1510;51.072;6.678;2022-12-26T08:03:47;9.50;99.90
3001;DHT22;1510;51.072;6.678;2022-12-26T08:06:14;9.60;99.90
3001;DHT22;1510;51.072;6.678;2022-12-26T08:08:40;9.50;99.90
3001;DHT22;1510;51.072;6.678;2022-12-26T08:11:09;9.40;99.90
3001;DHT22;1510;51.072;6.678;2022-12-26T08:13:37;9.40;99.90
3001;DHT22;1510;51.072;6.678;2022-12-26T08:16:04;9.40;99.90
3001;DHT22;1510;51.072;6.678;2022-12-26T08:18:33;9.30;99.90
3001;DHT22;1510;51.072;6.678;2022-12-26T08:21:01;9.40;99.90
3001;DHT22;1510;51.072;6.678;2022-12-26T08:23:28;9.40;99.90
3001;DHT22;1510;51.072;6.678;2022-12-26T08:25:55;9.40;99.90
3001;DHT22;1510;51.072;6.678;2022-12-26T08:28:22;9.40;99.90
3001;DHT22;1510;51.072;6.678;2022-12-26T08:30:48;9.50;99.90
3001;DHT22;1510;51.072;6.678;2022-12-26T08:33:15;9.40;99.90
3001;DHT22;1510;51.072;6.678;2022-12-26T08:35:44;9.50;99.90
3001;DHT22;1510;51.072;6.678;2022-12-26T08:38:10;9.50;99.90
3001;DHT22;1510;51.072;6.678;2022-12-26T08:40:37;9.40;99.90
3001;DHT22;1510;51.072;6.678;2022-12-26T08:43:04;9.40;99.90
3001;DHT22;1510;51.072;6.678;2022-12-26T08:45:31;9.40;99.90
3001;DHT22;1510;51.072;6.678;2022-12-26T08:47:58;9.40;99.90
3001;DHT22;1510;51.072;6.678;2022-12-26T08:50:27;9.40;99.90
3001;DHT22;1510;51.072;6.678;2022-12-26T08:52:55;9.40;99.90
3001;DHT22;1510;51.072;6.678;2022-12-26T08:55:22;9.60;99.90
3001;DHT22;1510;51.072;6.678;2022-12-26T08:57:49;9.60;99.90
3001;DHT22;1510;51.072;6.678;2022-12-26T09:00:17;9.70;99.90
3001;DHT22;1510;51.072;6.678;2022-12-26T09:02:43;9.80;99.90
3001;DHT22;1510;51.072;6.678;2022-12-26T09:05:10;9.80;99.90
3001;DHT22;1510;51.072;6.678;2022-12-26T09:07:37;10.00;99.90
3001;DHT22;1510;51.072;6.678;2022-12-26T09:10:06;10.20;99.90
3001;DHT22;1510;51.072;6.678;2022-12-26T09:12:32;10.20;99.90
3001;DHT22;1510;51.072;6.678;2022-12-26T09:14:59;10.30;99.90
3001;DHT22;1510;51.072;6.678;2022-12-26T09:17:26;10.40;99.90
3001;DHT22;1510;51.072;6.678;2022-12-26T09:19:54;10.50;99.90
3001;DHT22;1510;51.072;6.678;2022-12-26T09:22:20;10.50;99.90
3001;DHT22;1510;51.072;6.678;2022-12-26T09:25:06;10.50;99.90
3001;DHT22;1510;51.072;6.678;2022-12-26T09:27:33;10.60;99.90
3001;DHT22;1510;51.072;6.678;2022-12-26T09:30:00;10.50;99.90
3001;DHT22;1510;51.072;6.678;2022-12-26T09:32:31;10.40;99.90
3001;DHT22;1510;51.072;6.678;2022-12-26T09:34:58;10.40;99.90
3001;DHT22;1510;51.072;6.678;2022-12-26T09:37:24;10.40;99.90
3001;DHT22;1510;51.072;6.678;2022-12-26T09:39:51;10.50;99.90
3001;DHT22;1510;51.072;6.678;2022-12-26T09:42:32;10.50;99.90
3001;DHT22;1510;51.072;6.678;2022-12-26T09:45:08;10.50;99.90
3001;DHT22;1510;51.072;6.678;2022-12-26T09:47:44;10.60;99.90
3001;DHT22;1510;51.072;6.678;2022-12-26T09:50:15;10.70;99.90
3001;DHT22;1510;51.072;6.678;2022-12-26T09:56:06;10.90;99.90
3001;DHT22;1510;51.072;6.678;2022-12-26T09:58:41;11.00;99.90
3001;DHT22;1510;51.072;6.678;2022-12-26T10:01:12;11.10;99.90
3001;DHT22;1510;51.072;6.678;2022-12-26T10:03:42;11.10;99.90
3001;DHT22;1510;51.072;6.678;2022-12-26T10:06:13;11.20;99.90
3001;DHT22;1510;51.072;6.678;2022-12-26T10:08:54;11.30;99.90
3001;DHT22;1510;51.072;6.678;2022-12-26T10:11:34;11.30;99.90
3001;DHT22;1510;51.072;6.678;2022-12-26T10:14:10;11.30;99.90
3001;DHT22;1510;51.072;6.678;2022-12-26T10:16:55;11.30;99.90
3001;DHT22;1510;51.072;6.678;2022-12-26T10:19:51;11.40;99.90
3001;DHT22;1510;51.072;6.678;2022-12-26T10:22:31;11.30;99.90
3001;DHT22;1510;51.072;6.678;2022-12-26T10:25:03;11.40;99.90
3001;DHT22;1510;51.072;6.678;2022-12-26T10:31:17;11.20;99.90
3001;DHT22;1510;51.072;6.678;2022-12-26T10:33:47;11.10;99.90
3001;DHT22;1510;51.072;6.678;2022-12-26T10:36:26;11.10;99.90
3001;DHT22;1510;51.072;6.678;2022-12-26T10:38:55;11.00;99.90
3001;DHT22;1510;51.072;6.678;2022-12-26T10:41:26;11.00;99.90
3001;DHT22;1510;51.072;6.678;2022-12-26T10:43:53;11.00;99.90
3001;DHT22;1510;51.072;6.678;2022-12-26T10:46:35;11.00;99.90
3001;DHT22;1510;51.072;6.678;2022-12-26T10:49:06;10.90;99.90
3001;DHT22;1510;51.072;6.678;2022-12-26T10:51:33;11.10;99.90
3001;DHT22;1510;51.072;6.678;2022-12-26T10:54:12;11.00;99.90
3001;DHT22;1510;51.072;6.678;2022-12-26T10:56:42;11.00;99.90
3001;DHT22;1510;51.072;6.678;2022-12-26T10:59:13;11.00;99.90
3001;DHT22;1510;51.072;6.678;2022-12-26T11:01:50;11.00;99.90
3001;DHT22;1510;51.072;6.678;2022-12-26T11:04:34;11.10;99.90
3001;DHT22;1510;51.072;6.678;2022-12-26T11:11:28;11.00;99.90
3001;DHT22;1510;51.072;6.678;2022-12-26T11:17:34;11.20;99.90
3001;DHT22;1510;51.072;6.678;2022-12-26T11:20:15;11.30;99.90
3001;DHT22;1510;51.072;6.678;2022-12-26T11:22:45;11.30;99.90
3001;DHT22;1510;51.072;6.678;2022-12-26T11:25:29;11.30;99.90
3001;DHT22;1510;51.072;6.678;2022-12-26T11:28:19;11.40;99.90
3001;DHT22;1510;51.072;6.678;2022-12-26T11:34:25;11.40;99.90
3001;DHT22;1510;51.072;6.678;2022-12-26T11:36:53;11.40;99.90
3001;DHT22;1510;51.072;6.678;2022-12-26T11:39:22;11.60;99.90
3001;DHT22;1510;51.072;6.678;2022-12-26T11:41:50;11.60;99.90
3001;DHT22;1510;51.072;6.678;2022-12-26T11:44:22;11.70;99.90
3001;DHT22;1510;51.072;6.678;2022-12-26T11:46:54;11.70;99.90
3001;DHT22;1510;51.072;6.678;2022-12-26T11:50:05;11.90;99.90
3001;DHT22;1510;51.072;6.678;2022-12-26T11:52:33;12.20;99.90
3001;DHT22;1510;51.072;6.678;2022-12-26T11:55:25;12.50;99.90
3001;DHT22;1510;51.072;6.678;2022-12-26T11:58:23;12.40;99.90
3001;DHT22;1510;51.072;6.678;2022-12-26T12:01:34;12.40;99.90
3001;DHT22;1510;51.072;6.678;2022-12-26T12:04:01;12.20;99.90
3001;DHT22;1510;51.072;6.678;2022-12-26T12:06:50;12.20;99.90
3001;DHT22;1510;51.072;6.678;2022-12-26T12:09:25;12.20;99.90
3001;DHT22;1510;51.072;6.678;2022-12-26T12:11:58;12.10;99.90
3001;DHT22;1510;51.072;6.678;2022-12-26T12:14:43;12.00;99.90
3001;DHT22;1510;51.072;6.678;2022-12-26T12:17:18;12.10;99.90
3001;DHT22;1510;51.072;6.678;2022-12-26T12:20:01;12.30;99.90
3001;DHT22;1510;51.072;6.678;2022-12-26T12:22:54;12.60;99.90
3001;DHT22;1510;51.072;6.678;2022-12-26T12:25:35;12.60;99.90
3001;DHT22;1510;51.072;6.678;2022-12-26T12:28:15;12.30;99.90
3001;DHT22;1510;51.072;6.678;2022-12-26T12:30:49;12.10;99.90
3001;DHT22;1510;51.072;6.678;2022-12-26T12:33:29;11.80;99.90
3001;DHT22;1510;51.072;6.678;2022-12-26T12:36:08;11.70;99.90
3001;DHT22;1510;51.072;6.678;2022-12-26T12:38:48;11.60;99.90
3001;DHT22;1510;51.072;6.678;2022-12-26T12:44:29;11.70;99.90
3001;DHT22;1510;51.072;6.678;2022-12-26T12:47:06;11.70;99.90
3001;DHT22;1510;51.072;6.678;2022-12-26T12:49:45;11.70;99.90
3001;DHT22;1510;51.072;6.678;2022-12-26T12:52:25;11.80;99.90
3001;DHT22;1510;51.072;6.678;2022-12-26T12:55:16;11.90;99.90
3001;DHT22;1510;51.072;6.678;2022-12-26T12:57:48;11.90;99.90
3001;DHT22;1510;51.072;6.678;2022-12-26T13:01:09;11.80;99.90
3001;DHT22;1510;51.072;6.678;2022-12-26T13:03:41;11.20;99.90
3001;DHT22;1510;51.072;6.678;2022-12-26T13:06:14;9.90;99.90
3001;DHT22;1510;51.072;6.678;2022-12-26T13:08:44;9.40;99.90
3001;DHT22;1510;51.072;6.678;2022-12-26T13:11:18;9.00;99.90
3001;DHT22;1510;51.072;6.678;2022-12-26T13:13:47;8.90;99.90
3001;DHT22;1510;51.072;6.678;2022-12-26T13:16:17;9.00;99.90
3001;DHT22;1510;51.072;6.678;2022-12-26T13:18:49;9.10;99.90
3001;DHT22;1510;51.072;6.678;2022-12-26T13:21:17;9.10;99.90
3001;DHT22;1510;51.072;6.678;2022-12-26T13:23:47;9.20;99.90
3001;DHT22;1510;51.072;6.678;2022-12-26T13:26:37;9.20;99.90
3001;DHT22;1510;51.072;6.678;2022-12-26T13:29:10;9.20;99.90
3001;DHT22;1510;51.072;6.678;2022-12-26T13:32:13;9.20;99.90
3001;DHT22;1510;51.072;6.678;2022-12-26T13:38:06;9.20;99.90
3001;DHT22;1510;51.072;6.678;2022-12-26T13:40:34;9.20;99.90
3001;DHT22;1510;51.072;6.678;2022-12-26T13:43:08;9.00;99.90
3001;DHT22;1510;51.072;6.678;2022-12-26T13:45:58;8.80;99.90
3001;DHT22;1510;51.072;6.678;2022-12-26T13:48:57;8.70;99.90
3001;DHT22;1510;51.072;6.678;2022-12-26T13:51:51;8.60;99.90
3001;DHT22;1510;51.072;6.678;2022-12-26T13:54:19;8.40;99.90
3001;DHT22;1510;51.072;6.678;2022-12-26T13:57:22;8.30;99.90
3001;DHT22;1510;51.072;6.678;2022-12-26T14:00:11;8.20;99.90
3001;DHT22;1510;51.072;6.678;2022-12-26T14:03:12;8.10;99.90
3001;DHT22;1510;51.072;6.678;2022-12-26T14:06:07;8.20;99.90
3001;DHT22;1510;51.072;6.678;2022-12-26T14:08:43;8.20;99.90
3001;DHT22;1510;51.072;6.678;2022-12-26T14:11:24;8.30;99.90
3001;DHT22;1510;51.072;6.678;2022-12-26T14:14:02;8.20;99.90
3001;DHT22;1510;51.072;6.678;2022-12-26T14:16:43;8.20;99.90
3001;DHT22;1510;51.072;6.678;2022-12-26T14:19:23;8.20;99.90
3001;DHT22;1510;51.072;6.678;2022-12-26T14:21:59;8.20;99.90
3001;DHT22;1510;51.072;6.678;2022-12-26T14:24:36;8.20;99.90
3001;DHT22;1510;51.072;6.678;2022-12-26T14:30:52;8.00;99.90
3001;DHT22;1510;51.072;6.678;2022-12-26T14:40:27;7.90;99.90
3001;DHT22;1510;51.072;6.678;2022-12-26T14:43:23;7.80;99.90
3001;DHT22;1510;51.072;6.678;2022-12-26T14:45:56;8.00;99.90
3001;DHT22;1510;51.072;6.678;2022-12-26T14:52:35;7.70;99.90
3001;DHT22;1510;51.072;6.678;2022-12-26T14:55:38;7.60;99.90
3001;DHT22;1510;51.072;6.678;2022-12-26T14:58:40;7.50;99.90
3001;DHT22;1510;51.072;6.678;2022-12-26T15:05:09;7.40;99.90
3001;DHT22;1510;51.072;6.678;2022-12-26T15:08:10;7.30;99.90
3001;DHT22;1510;51.072;6.678;2022-12-26T15:10:58;7.30;99.90
3001;DHT22;1510;51.072;6.678;2022-12-26T15:14:13;7.30;99.90
3001;DHT22;1510;51.072;6.678;2022-12-26T15:16:58;7.40;99.90
3001;DHT22;1510;51.072;6.678;2022-12-26T15:20:04;7.30;99.90
3001;DHT22;1510;51.072;6.678;2022-12-26T15:26:46;7.30;99.90
3001;DHT22;1510;51.072;6.678;2022-12-26T15:29:44;7.40;99.90
3001;DHT22;1510;51.072;6.678;2022-12-26T15:32:34;7.20;99.90
3001;DHT22;1510;51.072;6.678;2022-12-26T15:36:32;7.30;99.90
3001;DHT22;1510;51.072;6.678;2022-12-26T15:39:09;7.10;99.90
3001;DHT22;1510;51.072;6.678;2022-12-26T15:42:29;7.10;99.90
3001;DHT22;1510;51.072;6.678;2022-12-26T15:48:12;7.30;99.90
3001;DHT22;1510;51.072;6.678;2022-12-26T15:51:29;7.30;99.90
3001;DHT22;1510;51.072;6.678;2022-12-26T15:56:54;7.20;99.90
3001;DHT22;1510;51.072;6.678;2022-12-26T15:59:48;7.10;99.90
3001;DHT22;1510;51.072;6.678;2022-12-26T16:02:38;7.20;99.90
3001;DHT22;1510;51.072;6.678;2022-12-26T16:05:36;7.10;99.90
3001;DHT22;1510;51.072;6.678;2022-12-26T16:08:20;7.10;99.90
3001;DHT22;1510;51.072;6.678;2022-12-26T16:14:27;7.10;99.90
3001;DHT22;1510;51.072;6.678;2022-12-26T16:17:08;7.00;99.90
3001;DHT22;1510;51.072;6.678;2022-12-26T16:19:35;7.00;99.90
3001;DHT22;1510;51.072;6.678;2022-12-26T16:22:05;6.90;99.90
3001;DHT22;1510;51.072;6.678;2022-12-26T16:24:51;6.90;99.90
3001;DHT22;1510;51.072;6.678;2022-12-26T16:27:21;6.80;99.90
3001;DHT22;1510;51.072;6.678;2022-12-26T16:29:49;6.80;99.90
3001;DHT22;1510;51.072;6.678;2022-12-26T16:32:20;6.70;99.90
3001;DHT22;1510;51.072;6.678;2022-12-26T16:34:48;6.60;99.90
3001;DHT22;1510;51.072;6.678;2022-12-26T16:37:18;6.50;99.90
3001;DHT22;1510;51.072;6.678;2022-12-26T16:40:03;6.30;99.90
3001;DHT22;1510;51.072;6.678;2022-12-26T16:42:31;6.20;99.90
3001;DHT22;1510;51.072;6.678;2022-12-26T16:44:58;6.20;99.90
3001;DHT22;1510;51.072;6.678;2022-12-26T16:47:27;6.00;99.90
3001;DHT22;1510;51.072;6.678;2022-12-26T16:49:55;5.90;99.90
3001;DHT22;1510;51.072;6.678;2022-12-26T16:52:33;5.80;99.90
3001;DHT22;1510;51.072;6.678;2022-12-26T16:58:22;5.70;99.90
3001;DHT22;1510;51.072;6.678;2022-12-26T17:01:00;5.60;99.90
3001;DHT22;1510;51.072;6.678;2022-12-26T17:03:40;5.50;99.90
3001;DHT22;1510;51.072;6.678;2022-12-26T17:06:29;5.60;99.90
3001;DHT22;1510;51.072;6.678;2022-12-26T17:09:40;5.70;99.90
3001;DHT22;1510;51.072;6.678;2022-12-26T17:41:42;5.30;99.90
3001;DHT22;1510;51.072;6.678;2022-12-26T17:44:34;5.20;99.90
3001;DHT22;1510;51.072;6.678;2022-12-26T17:47:21;5.10;99.90
3001;DHT22;1510;51.072;6.678;2022-12-26T17:49:49;5.10;99.90
3001;DHT22;1510;51.072;6.678;2022-12-26T17:52:19;4.90;99.90
3001;DHT22;1510;51.072;6.678;2022-12-26T17:54:46;4.90;99.90
3001;DHT22;1510;51.072;6.678;2022-12-26T17:57:18;4.80;99.90
3001;DHT22;1510;51.072;6.678;2022-12-26T17:59:45;4.70;99.90
3001;DHT22;1510;51.072;6.678;2022-12-26T18:02:12;4.60;99.90
3001;DHT22;1510;51.072;6.678;2022-12-26T18:04:39;4.60;99.90
3001;DHT22;1510;51.072;6.678;2022-12-26T18:07:07;4.50;99.90
3001;DHT22;1510;51.072;6.678;2022-12-26T18:09:35;4.50;99.90
3001;DHT22;1510;51.072;6.678;2022-12-26T18:12:02;4.40;99.90
3001;DHT22;1510;51.072;6.678;2022-12-26T18:14:30;4.30;99.90
3001;DHT22;1510;51.072;6.678;2022-12-26T18:16:58;4.20;99.90
3001;DHT22;1510;51.072;6.678;2022-12-26T18:19:25;4.20;99.90
3001;DHT22;1510;51.072;6.678;2022-12-26T18:21:52;4.10;99.90
3001;DHT22;1510;51.072;6.678;2022-12-26T18:24:18;4.10;99.90
3001;DHT22;1510;51.072;6.678;2022-12-26T18:26:45;4.00;99.90
3001;DHT22;1510;51.072;6.678;2022-12-26T18:29:13;4.00;99.90
3001;DHT22;1510;51.072;6.678;2022-12-26T18:31:41;4.00;99.90
3001;DHT22;1510;51.072;6.678;2022-12-26T18:34:08;4.00;99.90
3001;DHT22;1510;51.072;6.678;2022-12-26T18:36:36;4.00;99.90